createdAt,value
2023-02-19T00:00:09.580Z,4.34
2023-02-19T00:01:10.251Z,4.35
2023-02-19T00:02:10.309Z,4.32
2023-02-19T00:03:10.743Z,4.31
2023-02-19T00:04:11.034Z,4.32
2023-02-19T00:05:11.467Z,4.30
2023-02-19T00:06:11.753Z,4.32
2023-02-19T00:07:12.128Z,4.31
2023-02-19T00:08:12.483Z,4.34
2023-02-19T00:09:12.854Z,4.34
2023-02-19T00:10:13.159Z,4.34
2023-02-19T00:11:13.550Z,4.34
2023-02-19T00:12:13.857Z,4.34
2023-02-19T00:13:14.219Z,4.31
2023-02-19T00:14:14.661Z,4.32
2023-02-19T00:15:14.944Z,4.32
2023-02-19T00:16:15.283Z,4.34
2023-02-19T00:17:15.627Z,4.32
2023-02-19T00:18:15.977Z,4.32
2023-02-19T00:19:16.305Z,4.34
2023-02-19T00:20:16.652Z,4.34
2023-02-19T00:21:17.036Z,4.34
2023-02-19T00:22:17.350Z,4.30
2023-02-19T00:23:17.682Z,4.31
2023-02-19T00:24:18.111Z,4.32
2023-02-19T00:25:18.395Z,4.32
2023-02-19T00:26:19.066Z,4.28
2023-02-19T00:27:19.123Z,4.30
2023-02-19T00:28:19.477Z,4.28
2023-02-19T00:29:19.857Z,4.28
2023-02-19T00:30:20.191Z,4.26
2023-02-19T00:31:20.625Z,4.28
2023-02-19T00:32:20.931Z,4.28
2023-02-19T00:33:21.185Z,4.26
2023-02-19T00:34:21.579Z,4.30
2023-02-19T00:35:21.916Z,4.26
2023-02-19T00:36:22.344Z,4.28
2023-02-19T00:37:22.618Z,4.26
2023-02-19T00:38:22.991Z,4.30
2023-02-19T00:39:23.350Z,4.24
2023-02-19T00:40:23.716Z,4.26
2023-02-19T00:41:24.035Z,4.26
2023-02-19T00:42:24.401Z,4.26
2023-02-19T00:43:24.709Z,4.26
2023-02-19T00:44:25.090Z,4.23
2023-02-19T00:45:25.414Z,4.28
2023-02-19T00:46:25.782Z,4.24
2023-02-19T00:47:26.170Z,4.22
2023-02-19T00:48:26.523Z,4.20
2023-02-19T00:49:26.853Z,4.20
2023-02-19T00:50:27.175Z,4.23
2023-02-19T00:51:27.503Z,4.22
2023-02-19T00:52:27.889Z,4.22
2023-02-19T00:53:28.280Z,4.24
2023-02-19T00:54:28.602Z,4.23
2023-02-19T00:55:28.944Z,4.19
2023-02-19T00:56:29.318Z,4.22
2023-02-19T00:57:29.627Z,4.24
2023-02-19T00:58:30.080Z,4.20
2023-02-19T00:59:30.359Z,4.23
2023-02-19T01:00:30.703Z,4.19
2023-02-19T01:01:31.164Z,4.16
2023-02-19T01:02:31.391Z,4.17
2023-02-19T01:03:31.732Z,4.16
2023-02-19T01:04:32.227Z,4.14
2023-02-19T01:05:32.459Z,4.14
2023-02-19T01:06:32.851Z,4.16
2023-02-19T01:07:39.661Z,4.13
2023-02-19T01:08:33.497Z,4.14
2023-02-19T01:09:33.949Z,4.14
2023-02-19T01:10:34.421Z,4.14
2023-02-19T01:11:34.656Z,4.16
2023-02-19T01:12:35.057Z,4.17
2023-02-19T01:13:35.324Z,4.17
2023-02-19T01:14:35.728Z,4.17
2023-02-19T01:15:36.022Z,4.19
2023-02-19T01:16:36.397Z,4.16
2023-02-19T01:17:36.721Z,4.16
2023-02-19T01:18:37.206Z,4.14
2023-02-19T01:19:37.480Z,4.13
2023-02-19T01:20:37.833Z,4.14
2023-02-19T01:21:38.178Z,4.12
2023-02-19T01:22:38.468Z,4.16
2023-02-19T01:23:38.837Z,4.14
2023-02-19T01:24:39.230Z,4.14
2023-02-19T01:25:39.555Z,4.13
2023-02-19T01:26:39.900Z,4.13
2023-02-19T01:27:40.262Z,4.16
2023-02-19T01:28:40.621Z,4.14
2023-02-19T01:29:40.969Z,4.13
2023-02-19T01:30:41.318Z,4.13
2023-02-19T01:31:41.727Z,4.10
2023-02-19T01:32:42.010Z,4.12
2023-02-19T01:33:42.321Z,4.13
2023-02-19T01:34:42.743Z,4.10
2023-02-19T01:35:43.070Z,4.13
2023-02-19T01:36:43.445Z,4.13
2023-02-19T01:37:43.777Z,4.13
2023-02-19T01:38:44.201Z,4.12
2023-02-19T01:39:44.533Z,4.13
2023-02-19T01:40:44.874Z,4.10
2023-02-19T01:41:45.212Z,4.10
2023-02-19T01:42:45.571Z,4.12
2023-02-19T01:43:45.994Z,4.10
2023-02-19T01:44:46.326Z,4.13
2023-02-19T01:45:46.638Z,4.12
2023-02-19T01:46:47.013Z,4.10
2023-02-19T01:47:47.312Z,4.12
2023-02-19T01:48:47.687Z,4.10
2023-02-19T01:49:48.041Z,4.10
2023-02-19T01:50:48.369Z,4.10
2023-02-19T01:51:48.714Z,4.10
2023-02-19T01:52:49.080Z,4.08
2023-02-19T01:53:49.480Z,4.08
2023-02-19T01:54:49.793Z,4.06
2023-02-19T01:55:50.137Z,4.10
2023-02-19T01:56:50.453Z,4.10
2023-02-19T01:57:50.821Z,4.10
2023-02-19T01:58:51.200Z,4.12
2023-02-19T01:59:51.559Z,4.13
2023-02-19T02:00:52.021Z,4.08
2023-02-19T02:01:52.299Z,4.08
2023-02-19T02:02:52.638Z,4.08
2023-02-19T02:03:53.049Z,4.08
2023-02-19T02:04:53.415Z,4.10
2023-02-19T02:05:53.795Z,4.06
2023-02-19T02:06:54.105Z,4.08
2023-02-19T02:07:54.461Z,4.10
2023-02-19T02:08:54.827Z,4.10
2023-02-19T02:09:55.201Z,4.08
2023-02-19T02:10:55.559Z,4.12
2023-02-19T02:11:55.922Z,4.12
2023-02-19T02:12:56.381Z,4.12
2023-02-19T02:13:56.653Z,4.06
2023-02-19T02:14:57.019Z,4.08
2023-02-19T02:15:57.421Z,4.06
2023-02-19T02:16:57.742Z,4.10
2023-02-19T02:17:58.048Z,4.10
2023-02-19T02:18:58.430Z,4.10
2023-02-19T02:19:58.780Z,4.06
2023-02-19T02:21:56.877Z,4.04
2023-02-19T02:22:58.222Z,4.04
2023-02-19T02:24:05.091Z,4.05
2023-02-19T02:24:58.971Z,4.06
2023-02-19T02:25:59.286Z,4.05
2023-02-19T02:26:59.659Z,4.05
2023-02-19T02:28:00.047Z,4.08
2023-02-19T02:29:00.377Z,4.05
2023-02-19T02:30:00.769Z,4.06
2023-02-19T02:31:01.101Z,4.08
2023-02-19T02:32:01.476Z,4.06
2023-02-19T02:33:01.776Z,4.06
2023-02-19T02:34:02.137Z,4.06
2023-02-19T02:35:02.512Z,4.06
2023-02-19T02:36:02.843Z,4.06
2023-02-19T02:37:03.217Z,4.06
2023-02-19T02:38:03.587Z,4.08
2023-02-19T02:39:03.961Z,4.08
2023-02-19T02:40:04.344Z,4.05
2023-02-19T02:41:04.765Z,4.01
2023-02-19T02:42:05.006Z,4.02
2023-02-19T02:43:05.365Z,4.01
2023-02-19T02:44:05.723Z,4.01
2023-02-19T02:45:06.116Z,3.99
2023-02-19T02:46:06.518Z,3.98
2023-02-19T02:47:06.784Z,3.96
2023-02-19T02:48:07.115Z,3.99
2023-02-19T02:49:07.483Z,3.98
2023-02-19T02:50:07.865Z,3.96
2023-02-19T02:51:08.456Z,3.98
2023-02-19T02:52:08.523Z,3.96
2023-02-19T02:53:08.898Z,3.91
2023-02-19T02:54:09.268Z,3.91
2023-02-19T02:55:09.640Z,3.91
2023-02-19T02:56:09.967Z,3.91
2023-02-19T02:57:10.328Z,3.88
2023-02-19T02:58:10.695Z,3.87
2023-02-19T02:59:11.065Z,3.87
2023-02-19T03:00:11.447Z,3.88
2023-02-19T03:01:12.269Z,3.87
2023-02-19T03:02:12.209Z,3.88
2023-02-19T03:03:12.466Z,3.86
2023-02-19T03:04:12.830Z,3.80
2023-02-19T03:05:13.214Z,3.81
2023-02-19T03:06:13.528Z,3.81
2023-02-19T03:07:13.894Z,3.81
2023-02-19T03:08:14.253Z,3.80
2023-02-19T03:09:14.615Z,3.78
2023-02-19T03:10:14.979Z,3.80
2023-02-19T03:11:15.341Z,3.77
2023-02-19T03:12:15.705Z,3.78
2023-02-19T03:13:16.070Z,3.77
2023-02-19T03:14:16.424Z,3.77
2023-02-19T03:15:16.800Z,3.77
2023-02-19T03:16:17.182Z,3.77
2023-02-19T03:17:17.565Z,3.77
2023-02-19T03:18:17.890Z,3.76
2023-02-19T03:19:18.251Z,3.77
2023-02-19T03:20:18.627Z,3.76
2023-02-19T03:21:18.985Z,3.77
2023-02-19T03:22:19.364Z,3.76
2023-02-19T03:23:19.716Z,3.76
2023-02-19T03:24:20.074Z,3.77
2023-02-19T03:25:20.478Z,3.73
2023-02-19T03:26:20.812Z,3.74
2023-02-19T03:27:21.173Z,3.76
2023-02-19T03:28:21.538Z,3.74
2023-02-19T03:29:21.901Z,3.73
2023-02-19T03:30:22.332Z,3.74
2023-02-19T03:31:22.671Z,3.74
2023-02-19T03:32:23.008Z,3.73
2023-02-19T03:33:23.374Z,3.73
2023-02-19T03:34:25.800Z,3.70
2023-02-19T03:35:24.099Z,3.73
2023-02-19T03:36:24.425Z,3.73
2023-02-19T03:37:24.785Z,3.70
2023-02-19T03:38:25.153Z,3.70
2023-02-19T03:39:25.513Z,3.70
2023-02-19T03:40:25.895Z,3.69
2023-02-19T03:41:26.228Z,3.70
2023-02-19T03:42:26.587Z,3.70
2023-02-19T03:43:26.984Z,3.70
2023-02-19T03:44:27.331Z,3.70
2023-02-19T03:45:27.710Z,3.70
2023-02-19T03:46:28.058Z,3.69
2023-02-19T03:47:28.421Z,3.69
2023-02-19T03:48:28.756Z,3.69
2023-02-19T03:49:29.124Z,3.68
2023-02-19T03:50:29.471Z,3.69
2023-02-19T03:51:29.790Z,3.68
2023-02-19T03:52:30.151Z,3.68
2023-02-19T03:53:30.512Z,3.66
2023-02-19T03:54:30.890Z,3.66
2023-02-19T03:55:31.292Z,3.66
2023-02-19T03:56:31.613Z,3.65
2023-02-19T03:57:31.989Z,3.65
2023-02-19T03:58:32.359Z,3.63
2023-02-19T03:59:32.681Z,3.65
2023-02-19T04:00:33.085Z,3.63
2023-02-19T04:01:33.405Z,3.63
2023-02-19T04:02:33.814Z,3.63
2023-02-19T04:03:34.125Z,3.63
2023-02-19T04:04:34.546Z,3.65
2023-02-19T04:05:34.852Z,3.63
2023-02-19T04:06:35.188Z,3.63
2023-02-19T04:07:35.497Z,3.65
2023-02-19T04:08:35.865Z,3.63
2023-02-19T04:09:36.220Z,3.63
2023-02-19T04:10:36.603Z,3.62
2023-02-19T04:11:36.961Z,3.60
2023-02-19T04:12:37.326Z,3.62
2023-02-19T04:13:37.680Z,3.59
2023-02-19T04:14:38.036Z,3.58
2023-02-19T04:15:38.423Z,3.55
2023-02-19T04:16:38.837Z,3.51
2023-02-19T04:17:39.181Z,3.50
2023-02-19T04:18:39.470Z,3.48
2023-02-19T04:19:39.826Z,3.47
2023-02-19T04:20:40.240Z,3.44
2023-02-19T04:21:40.578Z,3.44
2023-02-19T04:22:40.916Z,3.44
2023-02-19T04:23:41.281Z,3.44
2023-02-19T04:24:41.637Z,3.45
2023-02-19T04:25:42.052Z,3.45
2023-02-19T04:26:42.371Z,3.42
2023-02-19T04:27:42.757Z,3.44
2023-02-19T04:28:43.092Z,3.44
2023-02-19T04:29:43.432Z,3.44
2023-02-19T04:30:44.052Z,3.41
2023-02-19T04:31:44.176Z,3.40
2023-02-19T04:32:44.534Z,3.36
2023-02-19T04:33:44.908Z,3.36
2023-02-19T04:34:45.283Z,3.36
2023-02-19T04:35:45.620Z,3.36
2023-02-19T04:36:45.978Z,3.37
2023-02-19T04:37:46.358Z,3.37
2023-02-19T04:38:46.674Z,3.36
2023-02-19T04:39:47.036Z,3.36
2023-02-19T04:40:47.427Z,3.36
2023-02-19T04:41:47.797Z,3.37
2023-02-19T04:42:48.131Z,3.37
2023-02-19T04:43:48.483Z,3.40
2023-02-19T04:44:48.853Z,3.40
2023-02-19T04:45:49.268Z,3.37
2023-02-19T04:46:49.580Z,3.36
2023-02-19T04:47:49.937Z,3.36
2023-02-19T04:48:50.315Z,3.36
2023-02-19T04:49:50.671Z,3.40
2023-02-19T04:50:51.050Z,3.37
2023-02-19T04:51:51.391Z,3.40
2023-02-19T04:52:51.711Z,3.41
2023-02-19T04:53:52.086Z,3.40
2023-02-19T04:54:52.452Z,3.37
2023-02-19T04:55:52.825Z,3.40
2023-02-19T04:56:53.159Z,3.40
2023-02-19T04:57:53.549Z,3.37
2023-02-19T04:58:53.861Z,3.40
2023-02-19T04:59:54.245Z,3.37
2023-02-19T05:00:54.636Z,3.36
2023-02-19T05:01:55.071Z,3.36
2023-02-19T05:02:55.316Z,3.34
2023-02-19T05:03:55.674Z,3.32
2023-02-19T05:04:56.037Z,3.34
2023-02-19T05:05:56.410Z,3.34
2023-02-19T05:06:56.767Z,3.32
2023-02-19T05:07:57.134Z,3.31
2023-02-19T05:08:57.501Z,3.29
2023-02-19T05:09:57.863Z,3.26
2023-02-19T05:10:58.240Z,3.28
2023-02-19T05:11:58.565Z,3.26
2023-02-19T05:12:58.929Z,3.26
2023-02-19T05:13:59.333Z,3.25
2023-02-19T05:14:59.668Z,3.25
2023-02-19T05:16:00.126Z,3.25
2023-02-19T05:17:00.389Z,3.22
2023-02-19T05:18:00.740Z,3.23
2023-02-19T05:19:01.147Z,3.23
2023-02-19T05:20:01.449Z,3.22
2023-02-19T05:21:01.845Z,3.21
2023-02-19T05:22:02.144Z,3.23
2023-02-19T05:23:02.510Z,3.22
2023-02-19T05:24:02.853Z,3.19
2023-02-19T05:25:03.246Z,3.21
2023-02-19T05:26:03.609Z,3.18
2023-02-19T05:27:03.949Z,3.14
2023-02-19T05:28:04.289Z,3.16
2023-02-19T05:29:04.675Z,3.14
2023-02-19T05:30:05.057Z,3.11
2023-02-19T05:31:05.412Z,3.08
2023-02-19T05:32:05.731Z,3.05
2023-02-19T05:33:06.039Z,3.04
2023-02-19T05:34:06.400Z,3.05
2023-02-19T05:35:06.828Z,2.98
2023-02-19T05:36:07.146Z,2.98
2023-02-19T05:37:07.455Z,2.98
2023-02-19T05:38:07.812Z,3.04
2023-02-19T05:39:08.173Z,3.01
2023-02-19T05:40:08.561Z,2.98
2023-02-19T05:41:09.237Z,2.95
2023-02-19T05:42:09.229Z,2.95
2023-02-19T05:43:09.595Z,2.95
2023-02-19T05:44:09.969Z,2.93
2023-02-19T05:45:10.330Z,2.92
2023-02-19T05:46:10.708Z,2.90
2023-02-19T05:47:11.034Z,2.92
2023-02-19T05:48:11.357Z,2.89
2023-02-19T05:49:11.724Z,2.86
2023-02-19T05:50:12.077Z,2.85
2023-02-19T05:51:12.789Z,2.85
2023-02-19T05:52:12.801Z,2.83
2023-02-19T05:53:13.176Z,2.83
2023-02-19T05:54:13.539Z,2.82
2023-02-19T05:55:13.901Z,2.86
2023-02-19T05:56:14.272Z,2.82
2023-02-19T05:57:14.612Z,2.82
2023-02-19T05:58:14.963Z,2.77
2023-02-19T05:59:15.313Z,2.77
2023-02-19T06:00:15.562Z,2.77
2023-02-19T06:01:15.862Z,2.75
2023-02-19T06:02:16.165Z,2.77
2023-02-19T06:03:16.429Z,2.72
2023-02-19T06:04:16.593Z,2.69
2023-02-19T06:05:16.875Z,2.69
2023-02-19T06:06:17.154Z,2.72
2023-02-19T06:07:17.410Z,2.74
2023-02-19T06:08:17.720Z,2.77
2023-02-19T06:09:17.996Z,2.77
2023-02-19T06:10:18.168Z,2.75
2023-02-19T06:11:18.441Z,2.72
2023-02-19T06:12:18.703Z,2.69
2023-02-19T06:13:18.978Z,2.65
2023-02-19T06:14:19.272Z,2.65
2023-02-19T06:15:19.553Z,2.67
2023-02-19T06:16:19.899Z,2.69
2023-02-19T06:17:20.008Z,2.71
2023-02-19T06:18:20.294Z,2.68
2023-02-19T06:19:20.581Z,2.65
2023-02-19T06:20:20.911Z,2.64
2023-02-19T06:21:21.196Z,2.67
2023-02-19T06:22:21.325Z,2.62
2023-02-19T06:23:21.595Z,2.62
2023-02-19T06:24:21.988Z,2.64
2023-02-19T06:25:22.194Z,2.65
2023-02-19T06:26:22.651Z,2.64
2023-02-19T06:27:22.759Z,2.64
2023-02-19T06:28:23.110Z,2.62
2023-02-19T06:29:23.277Z,2.62
2023-02-19T06:30:23.462Z,2.62
2023-02-19T06:31:23.709Z,2.64
2023-02-19T06:32:23.877Z,2.67
2023-02-19T06:33:24.065Z,2.67
2023-02-19T06:34:24.340Z,2.67
2023-02-19T06:35:24.549Z,2.67
2023-02-19T06:36:24.748Z,2.67
2023-02-19T06:37:24.903Z,2.65
2023-02-19T06:38:25.213Z,2.64
2023-02-19T06:39:25.242Z,2.67
2023-02-19T06:40:25.458Z,2.68
2023-02-19T06:41:25.603Z,2.68
2023-02-19T06:42:25.799Z,2.68
2023-02-19T06:43:26.054Z,2.67
2023-02-19T06:44:26.267Z,2.67
2023-02-19T06:45:26.424Z,2.67
2023-02-19T06:46:26.678Z,2.68
2023-02-19T06:47:26.817Z,2.69
2023-02-19T06:48:26.956Z,2.68
2023-02-19T06:49:27.222Z,2.69
2023-02-19T06:50:27.419Z,2.69
2023-02-19T06:51:27.660Z,2.69
2023-02-19T06:52:27.800Z,2.69
2023-02-19T06:53:28.088Z,2.65
2023-02-19T06:54:28.231Z,2.69
2023-02-19T06:55:28.535Z,2.72
2023-02-19T06:56:28.736Z,2.72
2023-02-19T06:57:28.897Z,2.68
2023-02-19T06:58:29.243Z,2.72
2023-02-19T06:59:29.381Z,2.74
2023-02-19T07:00:29.542Z,2.72
2023-02-19T07:01:29.740Z,2.69
2023-02-19T07:02:29.929Z,2.71
2023-02-19T07:03:30.101Z,2.68
2023-02-19T07:04:30.361Z,2.68
2023-02-19T07:05:30.452Z,2.71
2023-02-19T07:06:30.639Z,2.67
2023-02-19T07:07:30.884Z,2.69
2023-02-19T07:08:30.998Z,2.72
2023-02-19T07:09:31.161Z,2.71
2023-02-19T07:10:31.335Z,2.68
2023-02-19T07:11:31.518Z,2.71
2023-02-19T07:12:31.699Z,2.72
2023-02-19T07:13:31.986Z,2.71
2023-02-19T07:14:32.288Z,2.71
2023-02-19T07:15:32.478Z,2.69
2023-02-19T07:16:32.766Z,2.69
2023-02-19T07:17:32.976Z,2.69
2023-02-19T07:18:33.256Z,2.71
2023-02-19T07:19:33.443Z,2.68
2023-02-19T07:20:33.740Z,2.69
2023-02-19T07:21:33.951Z,2.69
2023-02-19T07:22:34.116Z,2.74
2023-02-19T07:23:34.465Z,2.72
2023-02-19T07:24:34.590Z,2.79
2023-02-19T07:25:34.761Z,2.79
2023-02-19T07:26:34.958Z,2.80
2023-02-19T07:27:35.100Z,2.79
2023-02-19T07:28:35.292Z,2.87
2023-02-19T07:29:35.447Z,2.90
2023-02-19T07:30:35.800Z,2.93
2023-02-19T07:31:36.056Z,2.95
2023-02-19T07:32:36.109Z,2.98
2023-02-19T07:33:36.278Z,2.98
2023-02-19T07:34:36.576Z,3.00
2023-02-19T07:35:36.904Z,3.03
2023-02-19T07:36:37.068Z,3.05
2023-02-19T07:37:37.229Z,3.07
2023-02-19T07:38:37.404Z,3.11
2023-02-19T07:39:37.719Z,3.16
2023-02-19T07:40:37.881Z,3.13
2023-02-19T07:41:38.044Z,3.11
2023-02-19T07:42:38.208Z,3.10
2023-02-19T07:43:38.363Z,3.10
2023-02-19T07:44:38.556Z,3.11
2023-02-19T07:45:38.779Z,3.13
2023-02-19T07:46:38.941Z,3.13
2023-02-19T07:47:39.101Z,3.13
2023-02-19T07:48:39.303Z,3.14
2023-02-19T07:49:39.461Z,3.13
2023-02-19T07:50:39.673Z,3.14
2023-02-19T07:51:39.964Z,3.13
2023-02-19T07:52:40.144Z,3.13
2023-02-19T07:53:40.437Z,3.13
2023-02-19T07:54:40.752Z,3.14
2023-02-19T07:55:40.926Z,3.11
2023-02-19T07:56:41.117Z,3.08
2023-02-19T07:57:41.404Z,3.08
2023-02-19T07:58:41.588Z,3.08
2023-02-19T07:59:41.794Z,3.07
2023-02-19T08:00:41.960Z,3.08
2023-02-19T08:01:42.283Z,3.11
2023-02-19T08:02:42.450Z,3.10
2023-02-19T08:03:42.725Z,3.13
2023-02-19T08:04:42.805Z,3.14
2023-02-19T08:05:43.122Z,3.13
2023-02-19T08:06:43.312Z,3.11
2023-02-19T08:07:43.584Z,3.13
2023-02-19T08:08:43.809Z,3.19
2023-02-19T08:09:44.081Z,3.25
2023-02-19T08:10:44.366Z,3.31
2023-02-19T08:11:44.468Z,3.32
2023-02-19T08:12:44.629Z,3.37
2023-02-19T08:13:44.792Z,3.44
2023-02-19T08:14:45.100Z,3.48
2023-02-19T08:15:45.253Z,3.53
2023-02-19T08:16:45.547Z,3.59
2023-02-19T08:17:45.615Z,3.65
2023-02-19T08:18:45.785Z,3.66
2023-02-19T08:19:45.989Z,3.74
2023-02-19T08:20:46.301Z,3.77
2023-02-19T08:21:46.493Z,3.78
2023-02-19T08:22:46.637Z,3.84
2023-02-19T08:23:46.808Z,3.86
2023-02-19T08:24:46.996Z,3.94
2023-02-19T08:25:47.168Z,3.96
2023-02-19T08:26:47.368Z,4.01
2023-02-19T08:27:47.501Z,4.04
2023-02-19T08:28:47.675Z,4.06
2023-02-19T08:29:47.828Z,4.06
2023-02-19T08:30:48.141Z,4.13
2023-02-19T08:31:48.537Z,4.17
2023-02-19T08:32:48.490Z,4.22
2023-02-19T08:33:48.774Z,4.26
2023-02-19T08:34:49.093Z,4.32
2023-02-19T08:35:49.262Z,4.34
2023-02-19T08:36:49.447Z,4.35
2023-02-19T08:37:49.615Z,4.42
2023-02-19T08:38:49.774Z,4.48
2023-02-19T08:39:49.978Z,4.50
2023-02-19T08:40:50.144Z,4.53
2023-02-19T08:41:50.335Z,4.56
2023-02-19T08:42:50.506Z,4.59
2023-02-19T08:43:50.671Z,4.70
2023-02-19T08:44:50.872Z,4.70
2023-02-19T08:45:51.073Z,4.73
2023-02-19T08:46:51.215Z,4.74
2023-02-19T08:47:51.388Z,4.74
2023-02-19T08:48:51.567Z,4.84
2023-02-19T08:49:51.882Z,4.84
2023-02-19T08:50:52.034Z,4.86
2023-02-19T08:51:52.251Z,4.87
2023-02-19T08:52:52.496Z,4.93
2023-02-19T08:53:52.671Z,5.00
2023-02-19T08:54:52.876Z,5.07
2023-02-19T08:55:53.036Z,5.05
2023-02-19T08:56:53.343Z,5.08
2023-02-19T08:57:53.507Z,5.05
2023-02-19T08:58:53.675Z,5.10
2023-02-19T08:59:53.836Z,5.08
2023-02-19T09:00:54.200Z,5.02
2023-02-19T09:01:54.213Z,5.07
2023-02-19T09:02:54.363Z,5.10
2023-02-19T09:03:54.566Z,5.08
2023-02-19T09:04:54.848Z,5.14
2023-02-19T09:05:55.030Z,5.20
2023-02-19T09:06:55.226Z,5.21
2023-02-19T09:07:55.398Z,5.28
2023-02-19T09:08:55.581Z,5.32
2023-02-19T09:09:55.744Z,5.36
2023-02-19T09:10:55.901Z,5.41
2023-02-19T09:11:56.216Z,5.41
2023-02-19T09:12:56.372Z,5.41
2023-02-19T09:13:56.539Z,5.47
2023-02-19T09:14:56.719Z,5.44
2023-02-19T09:15:56.978Z,5.44
2023-02-19T09:16:57.083Z,5.47
2023-02-19T09:17:57.277Z,5.48
2023-02-19T09:18:57.529Z,5.51
2023-02-19T09:19:57.762Z,5.57
2023-02-19T09:20:57.924Z,5.54
2023-02-19T09:21:58.114Z,5.53
2023-02-19T09:22:58.255Z,5.65
2023-02-19T09:23:58.417Z,5.62
2023-02-19T09:24:58.726Z,5.71
2023-02-19T09:25:58.892Z,5.79
2023-02-19T09:26:59.100Z,5.84
2023-02-19T09:27:59.269Z,5.83
2023-02-19T09:28:59.565Z,5.83
2023-02-19T09:29:59.759Z,5.71
2023-02-19T09:31:00.011Z,5.72
2023-02-19T09:32:00.242Z,5.69
2023-02-19T09:33:00.236Z,5.71
2023-02-19T09:34:00.434Z,5.79
2023-02-19T09:35:00.618Z,5.89
2023-02-19T09:36:00.793Z,5.83
2023-02-19T09:37:01.008Z,5.83
2023-02-19T09:38:01.176Z,5.84
2023-02-19T09:39:01.475Z,5.83
2023-02-19T09:40:01.638Z,5.84
2023-02-19T09:41:01.799Z,5.84
2023-02-19T09:42:02.030Z,5.93
2023-02-19T09:43:02.202Z,5.98
2023-02-19T09:44:02.362Z,6.02
2023-02-19T09:45:02.685Z,5.94
2023-02-19T09:46:02.865Z,5.93
2023-02-19T09:47:03.018Z,6.02
2023-02-19T09:48:03.167Z,6.01
2023-02-19T09:49:03.392Z,5.99
2023-02-19T09:50:03.523Z,5.99
2023-02-19T09:51:03.716Z,5.99
2023-02-19T09:52:03.938Z,6.01
2023-02-19T09:53:04.126Z,6.19
2023-02-19T09:54:04.316Z,6.28
2023-02-19T09:55:04.479Z,6.31
2023-02-19T09:56:04.648Z,6.14
2023-02-19T09:57:04.834Z,6.31
2023-02-19T09:58:04.987Z,6.27
2023-02-19T09:59:05.278Z,6.08
2023-02-19T10:00:05.493Z,6.14
2023-02-19T10:01:05.650Z,6.30
2023-02-19T10:02:05.824Z,6.28
2023-02-19T10:03:06.011Z,6.30
2023-02-19T10:04:06.177Z,6.35
2023-02-19T10:05:06.363Z,6.26
2023-02-19T10:06:07.504Z,6.24
2023-02-19T10:07:06.880Z,6.31
2023-02-19T10:08:07.003Z,6.48
2023-02-19T10:09:07.190Z,6.45
2023-02-19T10:10:07.353Z,6.48
2023-02-19T10:11:07.513Z,6.56
2023-02-19T10:12:09.891Z,6.66
2023-02-19T10:13:07.977Z,6.67
2023-02-19T10:14:08.272Z,6.66
2023-02-19T10:15:08.472Z,6.60
2023-02-19T10:16:08.840Z,6.52
2023-02-19T10:17:09.028Z,6.52
2023-02-19T10:18:11.186Z,6.56
2023-02-19T10:19:09.322Z,6.62
2023-02-19T10:20:09.518Z,6.60
2023-02-19T10:21:10.053Z,6.60
2023-02-19T10:22:09.888Z,6.60
2023-02-19T10:23:10.057Z,6.67
2023-02-19T10:24:10.270Z,6.81
2023-02-19T10:25:10.396Z,6.92
2023-02-19T10:26:10.580Z,7.03
2023-02-19T10:27:10.916Z,7.05
2023-02-19T10:28:11.054Z,7.13
2023-02-19T10:29:11.224Z,7.17
2023-02-19T10:30:11.556Z,7.20
2023-02-19T10:31:12.210Z,7.31
2023-02-19T10:32:12.065Z,7.36
2023-02-19T10:33:12.245Z,7.54
2023-02-19T10:34:12.427Z,7.56
2023-02-19T10:35:13.431Z,7.63
2023-02-19T10:36:12.718Z,7.76
2023-02-19T10:37:13.051Z,7.79
2023-02-19T10:38:13.211Z,7.66
2023-02-19T10:39:13.409Z,7.42
2023-02-19T10:40:13.565Z,7.33
2023-02-19T10:41:13.738Z,7.33
2023-02-19T10:42:13.959Z,7.58
2023-02-19T10:43:14.070Z,7.56
2023-02-19T10:44:14.250Z,7.31
2023-02-19T10:45:14.421Z,7.33
2023-02-19T10:46:14.617Z,7.38
2023-02-19T10:47:14.768Z,7.18
2023-02-19T10:48:14.936Z,7.03
2023-02-19T10:49:15.089Z,7.00
2023-02-19T10:50:15.301Z,7.20
2023-02-19T10:51:15.499Z,7.28
2023-02-19T10:52:15.704Z,7.42
2023-02-19T10:53:15.882Z,7.58
2023-02-19T10:54:16.043Z,7.54
2023-02-19T10:55:16.262Z,7.76
2023-02-19T10:56:16.448Z,7.91
2023-02-19T10:57:16.737Z,8.03
2023-02-19T10:58:16.832Z,8.15
2023-02-19T10:59:17.031Z,8.19
2023-02-19T11:00:17.241Z,8.18
2023-02-19T11:01:17.420Z,8.16
2023-02-19T11:02:17.600Z,8.05
2023-02-19T11:03:17.786Z,8.05
2023-02-19T11:04:18.040Z,7.82
2023-02-19T11:05:18.184Z,7.83
2023-02-19T11:06:18.364Z,8.08
2023-02-19T11:07:18.567Z,7.69
2023-02-19T11:08:18.737Z,7.51
2023-02-19T11:09:18.924Z,7.38
2023-02-19T11:10:19.253Z,7.21
2023-02-19T11:11:19.434Z,7.10
2023-02-19T11:12:19.607Z,7.25
2023-02-19T11:13:19.770Z,7.28
2023-02-19T11:14:19.960Z,7.47
2023-02-19T11:15:20.163Z,7.45
2023-02-19T11:16:20.444Z,7.31
2023-02-19T11:17:20.735Z,7.33
2023-02-19T11:18:20.905Z,7.21
2023-02-19T11:19:21.387Z,7.33
2023-02-19T11:20:21.270Z,7.38
2023-02-19T11:21:21.433Z,7.57
2023-02-19T11:22:21.728Z,8.08
2023-02-19T11:23:21.821Z,7.91
2023-02-19T11:24:22.100Z,7.97
2023-02-19T11:25:22.237Z,7.93
2023-02-19T11:26:22.444Z,7.91
2023-02-19T11:27:22.779Z,7.75
2023-02-19T11:28:22.882Z,7.80
2023-02-19T11:29:23.097Z,7.87
2023-02-19T11:30:23.345Z,8.10
2023-02-19T11:31:23.649Z,8.03
2023-02-19T11:32:23.713Z,7.76
2023-02-19T11:33:23.935Z,7.53
2023-02-19T11:34:24.143Z,7.51
2023-02-19T11:35:24.330Z,7.54
2023-02-19T11:36:24.471Z,7.47
2023-02-19T11:37:24.810Z,7.39
2023-02-19T11:38:24.954Z,7.35
2023-02-19T11:39:25.108Z,7.32
2023-02-19T11:40:25.302Z,7.54
2023-02-19T11:41:25.523Z,7.82
2023-02-19T11:42:27.713Z,8.09
2023-02-19T11:43:25.898Z,8.08
2023-02-19T11:44:26.105Z,8.09
2023-02-19T11:45:26.273Z,8.05
2023-02-19T11:46:26.464Z,8.03
2023-02-19T11:47:26.591Z,7.69
2023-02-19T11:48:28.126Z,7.60
2023-02-19T11:49:27.109Z,7.43
2023-02-19T11:50:27.250Z,7.57
2023-02-19T11:51:27.558Z,7.53
2023-02-19T11:52:27.718Z,7.45
2023-02-19T11:53:27.892Z,7.38
2023-02-19T11:54:28.070Z,7.35
2023-02-19T11:55:28.412Z,7.36
2023-02-19T11:56:28.577Z,7.51
2023-02-19T11:57:28.772Z,7.47
2023-02-19T11:58:28.914Z,7.57
2023-02-19T11:59:29.107Z,7.67
2023-02-19T12:00:29.260Z,7.67
2023-02-19T12:01:29.465Z,7.72
2023-02-19T12:02:29.659Z,7.75
2023-02-19T12:03:29.840Z,7.83
2023-02-19T12:04:30.032Z,7.93
2023-02-19T12:05:30.237Z,7.93
2023-02-19T12:06:30.395Z,8.13
2023-02-19T12:07:30.643Z,8.19
2023-02-19T12:08:30.823Z,8.26
2023-02-19T12:09:31.199Z,8.00
2023-02-19T12:10:31.397Z,7.95
2023-02-19T12:11:31.565Z,7.93
2023-02-19T12:12:31.774Z,7.97
2023-02-19T12:13:32.026Z,7.90
2023-02-19T12:14:32.239Z,7.85
2023-02-19T12:15:32.405Z,7.95
2023-02-19T12:16:32.648Z,8.03
2023-02-19T12:17:32.931Z,7.98
2023-02-19T12:18:33.965Z,7.72
2023-02-19T12:19:33.267Z,7.69
2023-02-19T12:20:33.468Z,7.82
2023-02-19T12:21:33.651Z,7.87
2023-02-19T12:22:33.832Z,8.08
2023-02-19T12:23:33.981Z,8.24
2023-02-19T12:24:34.247Z,8.53
2023-02-19T12:25:34.895Z,8.60
2023-02-19T12:26:34.564Z,8.63
2023-02-19T12:27:34.778Z,8.60
2023-02-19T12:28:34.926Z,8.58
2023-02-19T12:29:35.104Z,8.88
2023-02-19T12:30:35.343Z,8.66
2023-02-19T12:31:35.485Z,8.74
2023-02-19T12:32:35.658Z,8.76
2023-02-19T12:33:36.368Z,8.73
2023-02-19T12:34:36.027Z,8.66
2023-02-19T12:35:36.194Z,8.52
2023-02-19T12:36:36.422Z,8.52
2023-02-19T12:37:36.604Z,8.84
2023-02-19T12:38:36.798Z,8.78
2023-02-19T12:39:36.976Z,8.70
2023-02-19T12:40:37.156Z,8.44
2023-02-19T12:41:37.344Z,8.46
2023-02-19T12:42:37.532Z,8.76
2023-02-19T12:43:37.726Z,8.95
2023-02-19T12:44:37.881Z,8.61
2023-02-19T12:45:38.104Z,8.67
2023-02-19T12:46:38.249Z,8.28
2023-02-19T12:47:38.467Z,8.23
2023-02-19T12:48:38.604Z,8.12
2023-02-19T12:49:38.795Z,8.16
2023-02-19T12:50:38.951Z,8.06
2023-02-19T12:51:39.189Z,8.16
2023-02-19T12:52:39.336Z,8.38
2023-02-19T12:53:39.539Z,8.37
2023-02-19T12:54:39.702Z,8.51
2023-02-19T12:55:39.875Z,8.66
2023-02-19T12:56:40.058Z,8.79
2023-02-19T12:57:40.246Z,8.70
2023-02-19T12:58:40.439Z,8.61
2023-02-19T12:59:40.610Z,8.46
2023-02-19T13:00:40.792Z,8.34
2023-02-19T13:01:40.978Z,8.51
2023-02-19T13:02:41.169Z,8.31
2023-02-19T13:03:41.333Z,8.37
2023-02-19T13:04:41.541Z,8.38
2023-02-19T13:05:41.682Z,8.30
2023-02-19T13:06:41.864Z,8.41
2023-02-19T13:07:42.086Z,8.30
2023-02-19T13:08:57.855Z,8.37
2023-02-19T13:09:42.450Z,8.36
2023-02-19T13:10:42.659Z,8.48
2023-02-19T13:11:42.809Z,8.55
2023-02-19T13:12:43.034Z,8.53
2023-02-19T13:13:43.243Z,8.45
2023-02-19T13:14:43.388Z,8.28
2023-02-19T13:15:43.586Z,8.31
2023-02-19T13:16:43.851Z,8.37
2023-02-19T13:17:43.957Z,8.42
2023-02-19T13:18:44.127Z,8.44
2023-02-19T13:19:44.294Z,8.42
2023-02-19T13:20:44.483Z,8.46
2023-02-19T13:21:44.685Z,8.55
2023-02-19T13:22:44.870Z,8.44